CMA CGM Butterfly — A8NO8 — position and weather

sailwx.info

Track history (hours):
 
Tides and Currents Weather Stations Pressure Air Temp Water Temp Dewpoint Dewpoint Depression Visibility Wind Speed Wind Dir Waves Ship Positions

CMA CGM Butterfly

Last reported at 2014-Nov-15 22:32 UTC. Time now 2014-Nov-28 20:27 UTC.
Position N 01°10' E 103°41'.
Warning: this ship's position is 12 days out of date.

Length 350 m; draft 12.3 m.

Type: Ship (hazmat cat A). MMSI: 636091420.

Date/timePositionNaut miles runAvg speedWind from/ knotsBaromVisibWave heightAir tempDewpointWater temp
2014-Nov-15 22:32N 01°10' E 103°41'1313.0
2014-Nov-15 21:33N 01°13' E 103°54'1515.4
2014-Nov-15 20:33N 01°16' E 104°09'1615.4
2014-Nov-15 19:32N 01°22' E 104°23'  
2014-Nov-12 20:15N 21°54' E 113°52'1216.8
2014-Nov-12 19:32N 22°06' E 113°51'1413.7
2014-Nov-12 18:33N 22°19' E 113°48'1514.6
2014-Nov-12 17:33N 22°33' E 113°44'6 5.5
2014-Nov-12 16:28N 22°39' E 113°41'0 0.0
2014-Nov-12 04:29N 22°39' E 113°41'8 8.2
2014-Nov-12 03:33N 22°32' E 113°44'1514.6
2014-Nov-12 02:33N 22°17' E 113°48'1313.3
2014-Nov-12 01:33N 22°05' E 113°52'10 7.3
2014-Nov-12 00:15N 21°58' E 113°59'811.2
2014-Nov-11 23:33N 21°57' E 114°07'39 1.9
2014-Nov-11 03:12N 22°33' E 114°24'12411.3
2014-Nov-10 16:16N 22°44' E 116°37'912.8
2014-Nov-10 15:33N 22°48' E 116°46'1212.3
2014-Nov-10 14:33N 22°55' E 116°57'1312.7
2014-Nov-10 13:33N 23°03' E 117°08'5513.1
2014-Nov-10 09:20N 23°38' E 117°54'1216.0
2014-Nov-10 08:33N 23°46' E 118°05'1615.9
2014-Nov-10 07:33N 23°56' E 118°18'1615.2
2014-Nov-10 06:32N 24°05' E 118°32'2315.2
2014-Nov-10 05:03N 24°19' E 118°52'714.5
2014-Nov-10 04:33N 24°23' E 118°59'34714.9
2014-Nov-09 05:13N 29°10' E 122°36'2615.6
2014-Nov-09 03:33N 29°36' E 122°35'1515.1
2014-Nov-09 02:33N 29°44' E 122°20'1111.4
2014-Nov-09 01:33N 29°52' E 122°11'1211.7
2014-Nov-09 00:33N 29°57' E 121°59'8 6.6
2014-Nov-08 23:22N 29°57' E 121°50'0 0.0
2014-Nov-08 22:04N 29°57' E 121°50'0 0.0
2014-Nov-08 21:28N 29°57' E 121°50'0 0.0
2014-Nov-08 20:22N 29°57' E 121°50'0 0.1
2014-Nov-08 19:28N 29°57' E 121°50'0 0.0
2014-Nov-08 18:28N 29°57' E 121°50'0 0.1
2014-Nov-08 16:22N 29°57' E 121°50'0 0.0
2014-Nov-08 15:10N 29°57' E 121°50'0 0.0
2014-Nov-08 14:16N 29°57' E 121°50'0 0.0
2014-Nov-08 12:22N 29°57' E 121°50'0 0.0
2014-Nov-08 11:16N 29°57' E 121°50'0 0.0
2014-Nov-08 10:04N 29°57' E 121°50'0 0.0
2014-Nov-08 09:22N 29°57' E 121°50'0 0.0
2014-Nov-08 08:10N 29°57' E 121°50'0 0.0
2014-Nov-08 07:22N 29°57' E 121°50'0 0.0
2014-Nov-08 05:28N 29°57' E 121°50'0 0.0
2014-Nov-08 04:28N 29°57' E 121°50'0 0.1
2014-Nov-08 03:33N 29°57' E 121°50'6 6.5
2014-Nov-08 02:34N 29°59' E 121°57'1413.7
2014-Nov-08 01:34N 29°53' E 122°11'1010.4
2014-Nov-08 00:33N 29°45' E 122°19'6 5.9
2014-Nov-07 23:33N 29°41' E 122°24'3 1.7
2014-Nov-07 22:03N 29°38' E 122°25'0 0.1
2014-Nov-07 21:09N 29°38' E 122°25'0 0.1
2014-Nov-07 20:33N 29°38' E 122°25'0 0.0
2014-Nov-07 19:15N 29°38' E 122°25'0 0.0
2014-Nov-07 16:33N 29°38' E 122°26'0 0.2
2014-Nov-07 15:03N 29°39' E 122°25'0 0.0
2014-Nov-07 13:15N 29°39' E 122°25'0 0.0
2014-Nov-07 09:27N 29°38' E 122°25'0 0.1
2014-Nov-07 06:21N 29°38' E 122°26'0 0.0
2014-Nov-07 01:27N 29°38' E 122°25'0 0.0
2014-Nov-06 23:27N 29°39' E 122°25'0 0.0
2014-Nov-06 16:27N 29°38' E 122°26'0 0.0
2014-Nov-06 01:06N 29°39' E 122°25'0 0.5
2014-Nov-06 00:33N 29°39' E 122°26'10 9.7
2014-Nov-05 23:33N 29°42' E 122°36'1312.6
2014-Nov-05 22:33N 29°49' E 122°48'  
Track history (hours):
 
Tides and Currents Weather Stations Pressure Air Temp Water Temp Dewpoint Dewpoint Depression Visibility Wind Speed Wind Dir Waves Ship Positions

CMA CGM Butterfly

Last reported at 2014-Nov-15 22:32 UTC. Time now 2014-Nov-28 20:27 UTC.
Position N 01°10' E 103°41'.
Warning: this ship's position is 12 days out of date.

Length 350 m; draft 12.3 m.

Type: Ship (hazmat cat A). MMSI: 636091420.

Date/timePositionNaut miles runAvg speedWind from/ knotsBaromVisibWave heightAir tempDewpointWater temp
2014-Nov-15 22:32N 01°10' E 103°41'1313.0
2014-Nov-15 21:33N 01°13' E 103°54'1515.4
2014-Nov-15 20:33N 01°16' E 104°09'1615.4
2014-Nov-15 19:32N 01°22' E 104°23'  
2014-Nov-12 20:15N 21°54' E 113°52'1216.8
2014-Nov-12 19:32N 22°06' E 113°51'1413.7
2014-Nov-12 18:33N 22°19' E 113°48'1514.6
2014-Nov-12 17:33N 22°33' E 113°44'6 5.5
2014-Nov-12 16:28N 22°39' E 113°41'0 0.0
2014-Nov-12 04:29N 22°39' E 113°41'8 8.2
2014-Nov-12 03:33N 22°32' E 113°44'1514.6
2014-Nov-12 02:33N 22°17' E 113°48'1313.3
2014-Nov-12 01:33N 22°05' E 113°52'10 7.3
2014-Nov-12 00:15N 21°58' E 113°59'811.2
2014-Nov-11 23:33N 21°57' E 114°07'39 1.9
2014-Nov-11 03:12N 22°33' E 114°24'12411.3
2014-Nov-10 16:16N 22°44' E 116°37'912.8
2014-Nov-10 15:33N 22°48' E 116°46'1212.3
2014-Nov-10 14:33N 22°55' E 116°57'1312.7
2014-Nov-10 13:33N 23°03' E 117°08'5513.1
2014-Nov-10 09:20N 23°38' E 117°54'1216.0
2014-Nov-10 08:33N 23°46' E 118°05'1615.9
2014-Nov-10 07:33N 23°56' E 118°18'1615.2
2014-Nov-10 06:32N 24°05' E 118°32'2315.2
2014-Nov-10 05:03N 24°19' E 118°52'714.5
2014-Nov-10 04:33N 24°23' E 118°59'34714.9
2014-Nov-09 05:13N 29°10' E 122°36'2615.6
2014-Nov-09 03:33N 29°36' E 122°35'1515.1
2014-Nov-09 02:33N 29°44' E 122°20'1111.4
2014-Nov-09 01:33N 29°52' E 122°11'1211.7
2014-Nov-09 00:33N 29°57' E 121°59'8 6.6
2014-Nov-08 23:22N 29°57' E 121°50'0 0.0
2014-Nov-08 22:04N 29°57' E 121°50'0 0.0
2014-Nov-08 21:28N 29°57' E 121°50'0 0.0
2014-Nov-08 20:22N 29°57' E 121°50'0 0.1
2014-Nov-08 19:28N 29°57' E 121°50'0 0.0
2014-Nov-08 18:28N 29°57' E 121°50'0 0.1
2014-Nov-08 16:22N 29°57' E 121°50'0 0.0
2014-Nov-08 15:10N 29°57' E 121°50'0 0.0
2014-Nov-08 14:16N 29°57' E 121°50'0 0.0
2014-Nov-08 12:22N 29°57' E 121°50'0 0.0
2014-Nov-08 11:16N 29°57' E 121°50'0 0.0
2014-Nov-08 10:04N 29°57' E 121°50'0 0.0
2014-Nov-08 09:22N 29°57' E 121°50'0 0.0
2014-Nov-08 08:10N 29°57' E 121°50'0 0.0
2014-Nov-08 07:22N 29°57' E 121°50'0 0.0
2014-Nov-08 05:28N 29°57' E 121°50'0 0.0
2014-Nov-08 04:28N 29°57' E 121°50'0 0.1
2014-Nov-08 03:33N 29°57' E 121°50'6 6.5
2014-Nov-08 02:34N 29°59' E 121°57'1413.7
2014-Nov-08 01:34N 29°53' E 122°11'1010.4
2014-Nov-08 00:33N 29°45' E 122°19'6 5.9
2014-Nov-07 23:33N 29°41' E 122°24'3 1.7
2014-Nov-07 22:03N 29°38' E 122°25'0 0.1
2014-Nov-07 21:09N 29°38' E 122°25'0 0.1
2014-Nov-07 20:33N 29°38' E 122°25'0 0.0
2014-Nov-07 19:15N 29°38' E 122°25'0 0.0
2014-Nov-07 16:33N 29°38' E 122°26'0 0.2
2014-Nov-07 15:03N 29°39' E 122°25'0 0.0
2014-Nov-07 13:15N 29°39' E 122°25'0 0.0
2014-Nov-07 09:27N 29°38' E 122°25'0 0.1
2014-Nov-07 06:21N 29°38' E 122°26'0 0.0
2014-Nov-07 01:27N 29°38' E 122°25'0 0.0
2014-Nov-06 23:27N 29°39' E 122°25'0 0.0
2014-Nov-06 16:27N 29°38' E 122°26'0 0.0
2014-Nov-06 01:06N 29°39' E 122°25'0 0.5
2014-Nov-06 00:33N 29°39' E 122°26'10 9.7
2014-Nov-05 23:33N 29°42' E 122°36'1312.6
2014-Nov-05 22:33N 29°49' E 122°48'  

Dump ship's entire track history